Time;durP1;ratioP1;P1;durP2;ratioP2;P2;SDS_P1;SDS_P2;PMS_P1;PMS_P2;Temp;Humidity;BMP_temperature;BMP_pressure;BME280_temperature;BME280_humidity;BME280_pressure;Samples;Min_cycle;Max_cycle;Signal;HPM_P1;HPM_P2
2024/04/03 00:00:42;;;;;;;;;;;;;;;0.76;100.00;99020.53;5067457;28;19932;-67
2024/04/03 00:03:07;;;;;;;;;;;;;;;0.72;100.00;99013.91;5061081;28;20311;-69
2024/04/03 00:05:33;;;;;;;;;;;;;;;0.77;100.00;99009.06;5067909;28;19928;-68
2024/04/03 00:07:58;;;;;;;;;;;;;;;0.81;100.00;99013.06;5045650;28;19921;-67
2024/04/03 00:10:24;;;;;;;;;;;;;;;0.78;100.00;99010.72;5057728;28;20300;-66
2024/04/03 00:12:49;;;;;;;;;;;;;;;0.85;100.00;99005.72;5065475;28;19920;-68
2024/04/03 00:15:14;;;;;;;;;;;;;;;0.82;100.00;99004.22;5053497;28;20307;-67
2024/04/03 00:17:39;;;;;;;;;;;;;;;0.81;100.00;99002.56;5062199;28;19921;-68
2024/04/03 00:20:05;;;;;;;;;;;;;;;0.82;100.00;99004.22;5062690;28;19925;-67
2024/04/03 00:22:30;;;;;;;;;;;;;;;0.80;100.00;99007.97;5059567;28;19920;-66
2024/04/03 00:24:56;;;;;;;;;;;;;;;0.76;100.00;98999.56;5057886;28;19931;-68
2024/04/03 00:27:22;;;;;;;;;;;;;;;0.74;100.00;99001.50;5062706;28;19925;-69
2024/04/03 00:29:48;;;;;;;;;;;;;;;0.72;100.00;98985.09;5061935;28;19925;-67
2024/04/03 00:32:13;;;;;;;;;;;;;;;0.71;100.00;98983.44;5060608;28;19970;-66
2024/04/03 00:34:39;;;;;;;;;;;;;;;0.74;100.00;98985.78;5060076;28;19925;-68
2024/04/03 00:37:05;;;;;;;;;;;;;;;0.75;100.00;98974.34;5057208;28;19925;-67
2024/04/03 00:39:30;;;;;;;;;;;;;;;0.76;100.00;98967.28;5062717;28;19928;-69
2024/04/03 00:41:55;;;;;;;;;;;;;;;0.77;100.00;98961.09;5062762;28;19956;-67
2024/04/03 00:44:21;;;;;;;;;;;;;;;0.80;100.00;98968.66;5072340;28;19928;-68
2024/04/03 00:46:47;;;;;;;;;;;;;;;0.83;100.00;98961.31;5066429;28;20437;-67
2024/04/03 00:49:12;;;;;;;;;;;;;;;0.82;100.00;98956.22;5062715;28;20018;-67
2024/04/03 00:51:38;;;;;;;;;;;;;;;0.80;100.00;98953.75;5059616;28;19971;-69
2024/04/03 00:54:03;;;;;;;;;;;;;;;0.78;100.00;98945.22;5062010;28;20317;-66
2024/04/03 00:56:29;;;;;;;;;;;;;;;0.77;100.00;98942.75;5055554;28;20348;-67
2024/04/03 00:58:54;;;;;;;;;;;;;;;0.75;100.00;98935.03;5063393;28;20410;-68
2024/04/03 01:01:20;;;;;;;;;;;;;;;0.73;100.00;98933.53;5063489;28;19925;-67
2024/04/03 01:03:45;;;;;;;;;;;;;;;0.70;100.00;98925.97;5060919;28;19921;-67
2024/04/03 01:06:10;;;;;;;;;;;;;;;0.68;100.00;98928.72;5060646;28;20494;-66
2024/04/03 01:08:36;;;;;;;;;;;;;;;0.64;100.00;98931.78;5070386;28;19973;-67
2024/04/03 01:11:02;;;;;;;;;;;;;;;0.64;100.00;98937.84;5059537;28;19936;-68
2024/04/03 01:13:27;;;;;;;;;;;;;;;0.65;100.00;98943.91;5070797;28;19920;-67
2024/04/03 01:16:04;;;;;;;;;;;;;;;0.65;100.00;98942.13;5058028;28;20400;-68
2024/04/03 01:18:30;;;;;;;;;;;;;;;0.63;100.00;98938.81;5060325;28;20355;-66
2024/04/03 01:20:55;;;;;;;;;;;;;;;0.61;100.00;98927.66;5063885;28;19928;-68
2024/04/03 01:23:24;;;;;;;;;;;;;;;0.58;100.00;98920.09;5053983;28;20004;-68
2024/04/03 01:25:50;;;;;;;;;;;;;;;0.60;100.00;98926.00;5061415;28;19931;-66
2024/04/03 01:28:17;;;;;;;;;;;;;;;0.61;100.00;98925.84;5062552;28;19951;-67
2024/04/03 01:30:42;;;;;;;;;;;;;;;0.66;100.00;98925.44;5060718;28;19928;-66
2024/04/03 01:33:07;;;;;;;;;;;;;;;0.65;100.00;98926.41;5063522;28;20406;-67
2024/04/03 01:35:33;;;;;;;;;;;;;;;0.67;100.00;98916.59;5057314;28;19925;-66
2024/04/03 01:37:59;;;;;;;;;;;;;;;0.65;100.00;98909.84;5059794;28;20392;-66
2024/04/03 01:40:24;;;;;;;;;;;;;;;0.39;100.00;98867.78;5068905;28;19936;-68
2024/04/03 01:42:50;;;;;;;;;;;;;;;0.62;100.00;98887.38;5065655;28;20424;-68
2024/04/03 01:45:15;;;;;;;;;;;;;;;0.63;100.00;98870.69;5066570;28;19958;-67
2024/04/03 01:47:41;;;;;;;;;;;;;;;0.60;100.00;98874.44;5063459;28;19929;-65
2024/04/03 01:50:07;;;;;;;;;;;;;;;0.56;100.00;98899.25;5064872;28;20404;-65
2024/04/03 01:52:32;;;;;;;;;;;;;;;0.59;100.00;98877.22;5074620;28;19920;-66
2024/04/03 01:54:57;;;;;;;;;;;;;;;0.61;100.00;98890.97;5060542;28;20007;-68
2024/04/03 01:57:23;;;;;;;;;;;;;;;0.58;100.00;98876.38;5060626;28;19925;-70
2024/04/03 01:59:48;;;;;;;;;;;;;;;0.57;100.00;98868.63;5067212;28;20043;-68
2024/04/03 02:02:13;;;;;;;;;;;;;;;0.54;100.00;98874.16;5057382;28;19924;-70
2024/04/03 02:04:39;;;;;;;;;;;;;;;0.53;100.00;98883.00;5067939;28;20584;-67
2024/04/03 02:07:04;;;;;;;;;;;;;;;0.54;100.00;98875.00;5070154;28;19932;-66
2024/04/03 02:09:29;;;;;;;;;;;;;;;0.57;100.00;98873.88;5065280;28;20436;-67
2024/04/03 02:11:55;;;;;;;;;;;;;;;0.61;100.00;98859.53;5063058;28;20371;-67
2024/04/03 02:14:20;;;;;;;;;;;;;;;0.64;100.00;98859.25;5061138;28;20422;-66
2024/04/03 02:16:46;;;;;;;;;;;;;;;0.67;100.00;98853.72;5060207;28;19920;-68
2024/04/03 02:19:12;;;;;;;;;;;;;;;0.67;100.00;98851.09;5068453;28;19924;-68
2024/04/03 02:21:38;;;;;;;;;;;;;;;0.66;100.00;98861.72;5066528;28;19932;-65
2024/04/03 02:24:03;;;;;;;;;;;;;;;0.64;100.00;98855.81;5061273;28;19925;-67
2024/04/03 02:26:29;;;;;;;;;;;;;;;0.65;100.00;98849.59;5060667;28;19935;-67
2024/04/03 02:28:56;;;;;;;;;;;;;;;0.62;100.00;98840.25;5069204;28;20369;-68
2024/04/03 02:31:21;;;;;;;;;;;;;;;0.63;100.00;98841.88;5082560;28;19951;-66
2024/04/03 02:33:46;;;;;;;;;;;;;;;0.62;100.00;98829.75;5073174;28;19924;-67
2024/04/03 02:36:12;;;;;;;;;;;;;;;0.57;100.00;98837.22;5064049;28;20310;-69
2024/04/03 02:38:38;;;;;;;;;;;;;;;0.55;100.00;98828.66;5066551;28;19928;-68
2024/04/03 02:41:03;;;;;;;;;;;;;;;0.51;100.00;98814.22;5062747;28;19932;-68
2024/04/03 02:43:29;;;;;;;;;;;;;;;0.54;100.00;98808.69;5060154;28;19960;-69
2024/04/03 02:45:54;;;;;;;;;;;;;;;0.51;100.00;98812.44;5063691;28;19924;-67
2024/04/03 02:48:20;;;;;;;;;;;;;;;0.52;100.00;98813.25;5073005;28;19967;-66
2024/04/03 02:50:46;;;;;;;;;;;;;;;0.51;100.00;98791.47;5069913;28;19921;-70
2024/04/03 02:53:12;;;;;;;;;;;;;;;0.52;100.00;98793.13;5076953;28;19921;-64
2024/04/03 02:55:37;;;;;;;;;;;;;;;0.55;100.00;98773.66;5067212;28;19924;-68
2024/04/03 02:58:03;;;;;;;;;;;;;;;0.55;100.00;98781.53;5064728;28;20405;-66
2024/04/03 03:00:28;;;;;;;;;;;;;;;0.55;100.00;98797.25;5062134;28;19925;-67
2024/04/03 03:02:53;;;;;;;;;;;;;;;0.53;100.00;98788.72;5057049;28;20234;-66
2024/04/03 03:05:19;;;;;;;;;;;;;;;0.52;100.00;98797.53;5067763;28;19932;-67
2024/04/03 03:07:44;;;;;;;;;;;;;;;0.54;100.00;98795.59;5065735;28;20376;-68
2024/04/03 03:10:09;;;;;;;;;;;;;;;0.53;100.00;98793.94;5071442;28;19925;-68
2024/04/03 03:12:35;;;;;;;;;;;;;;;0.51;100.00;98785.41;5069658;28;20388;-70
2024/04/03 03:15:00;;;;;;;;;;;;;;;0.51;100.00;98764.47;5067220;28;20380;-70
2024/04/03 03:17:26;;;;;;;;;;;;;;;0.53;100.00;98759.91;5081795;28;19924;-67
2024/04/03 03:19:51;;;;;;;;;;;;;;;0.53;100.00;98749.41;5061520;28;19929;-66
2024/04/03 03:22:16;;;;;;;;;;;;;;;0.56;100.00;98749.13;5062406;28;19924;-70
2024/04/03 03:24:42;;;;;;;;;;;;;;;0.56;100.00;98725.53;5072379;28;19939;-68
2024/04/03 03:27:08;;;;;;;;;;;;;;;0.56;100.00;98736.03;5067301;28;19925;-67
2024/04/03 03:29:33;;;;;;;;;;;;;;;0.53;100.00;98749.41;5059186;28;19969;-69
2024/04/03 03:31:59;;;;;;;;;;;;;;;0.55;100.00;98737.00;5069188;28;20022;-66
2024/04/03 03:34:24;;;;;;;;;;;;;;;0.53;100.00;98728.47;5065541;28;19932;-68
2024/04/03 03:36:49;;;;;;;;;;;;;;;0.53;100.00;98736.31;5062667;28;19931;-67
2024/04/03 03:39:15;;;;;;;;;;;;;;;0.54;100.00;98749.28;5063554;28;19921;-69
2024/04/03 03:41:40;;;;;;;;;;;;;;;0.55;100.00;98740.44;5062756;28;19928;-70
2024/04/03 03:44:05;;;;;;;;;;;;;;;0.63;100.00;98752.81;5059039;28;19921;-69
2024/04/03 03:46:30;;;;;;;;;;;;;;;0.60;100.00;98759.19;5070388;28;20030;-68
2024/04/03 03:54:24;;;;;;;;;;;;;;;0.51;100.00;98723.38;5064214;28;19924;-69
2024/04/03 03:56:49;;;;;;;;;;;;;;;0.51;100.00;98699.81;5062298;28;20307;-68
2024/04/03 03:59:14;;;;;;;;;;;;;;;0.52;100.00;98718.97;5060193;28;19982;-68
2024/04/03 04:01:40;;;;;;;;;;;;;;;0.57;100.00;98748.97;5056522;28;19924;-68
2024/04/03 04:04:05;;;;;;;;;;;;;;;0.61;100.00;98765.25;5064171;28;20384;-69
2024/04/03 04:06:31;;;;;;;;;;;;;;;0.61;100.00;98770.47;5059935;28;20426;-69
2024/04/03 04:08:56;;;;;;;;;;;;;;;0.65;100.00;98765.78;5058275;28;20311;-66
2024/04/03 04:11:21;;;;;;;;;;;;;;;0.65;100.00;98769.22;5076641;28;19929;-68
2024/04/03 04:13:48;;;;;;;;;;;;;;;0.68;100.00;98766.28;5067078;28;19955;-66
2024/04/03 04:16:13;;;;;;;;;;;;;;;0.73;100.00;98773.69;5064517;28;19985;-68
2024/04/03 04:18:39;;;;;;;;;;;;;;;0.77;100.00;98781.09;5063183;28;20442;-68
2024/04/03 04:21:04;;;;;;;;;;;;;;;0.72;100.00;98772.88;5059844;28;19930;-67
2024/04/03 04:23:29;;;;;;;;;;;;;;;0.72;100.00;98767.63;5058635;28;20334;-66
2024/04/03 04:25:56;;;;;;;;;;;;;;;0.70;100.00;98772.19;5061863;28;20359;-66
2024/04/03 04:28:23;;;;;;;;;;;;;;;0.68;100.00;98771.53;5063234;28;19925;-68
2024/04/03 04:30:56;;;;;;;;;;;;;;;0.64;100.00;98767.56;5066753;28;19924;-65
2024/04/03 04:33:21;;;;;;;;;;;;;;;0.64;100.00;98767.56;5057679;28;19925;-69
2024/04/03 04:35:54;;;;;;;;;;;;;;;0.65;100.00;98766.59;5066439;28;19931;-68
2024/04/03 04:38:19;;;;;;;;;;;;;;;0.68;100.00;98775.94;5059720;28;19932;-69
2024/04/03 04:40:58;;;;;;;;;;;;;;;0.64;100.00;98775.41;5062868;28;19925;-68
2024/04/03 04:43:24;;;;;;;;;;;;;;;0.63;100.00;98770.34;5059284;28;20023;-67
2024/04/03 04:46:02;;;;;;;;;;;;;;;0.70;100.00;98759.09;5060005;28;20561;-68
2024/04/03 04:48:28;;;;;;;;;;;;;;;0.70;100.00;98764.34;5070673;28;19957;-69
2024/04/03 04:50:54;;;;;;;;;;;;;;;0.68;100.00;98761.06;5084478;28;19928;-70
2024/04/03 04:53:20;;;;;;;;;;;;;;;0.69;100.00;98746.97;5059252;28;20051;-69
2024/04/03 04:56:02;;;;;;;;;;;;;;;0.69;100.00;98754.84;5060957;28;19924;-68
2024/04/03 04:58:27;;;;;;;;;;;;;;;0.74;100.00;98755.22;5062775;28;20063;-67
2024/04/03 05:01:06;;;;;;;;;;;;;;;0.78;100.00;98740.84;5061866;28;20011;-70
2024/04/03 05:03:31;;;;;;;;;;;;;;;0.77;100.00;98759.31;5061202;28;19924;-69
2024/04/03 05:05:57;;;;;;;;;;;;;;;0.80;100.00;98759.84;5065494;28;20501;-68
2024/04/03 05:08:23;;;;;;;;;;;;;;;0.78;100.00;98740.84;5069893;28;20387;-67
2024/04/03 05:10:51;;;;;;;;;;;;;;;0.79;100.00;98752.97;5066249;28;19931;-68
2024/04/03 05:13:18;;;;;;;;;;;;;;;0.80;100.00;98744.13;5060562;28;20023;-69
2024/04/03 05:15:45;;;;;;;;;;;;;;;0.77;100.00;98746.22;5059059;28;20066;-70
2024/04/03 05:18:11;;;;;;;;;;;;;;;0.75;100.00;98733.28;5066355;28;19925;-70
2024/04/03 05:20:36;;;;;;;;;;;;;;;0.76;100.00;98728.84;5063904;28;19935;-69
2024/04/03 05:23:01;;;;;;;;;;;;;;;0.77;100.00;98743.59;5060660;28;20034;-67
2024/04/03 05:25:31;;;;;;;;;;;;;;;0.77;100.00;98738.38;5056815;28;19983;-69
2024/04/03 05:27:56;;;;;;;;;;;;;;;0.81;100.00;98719.56;5068552;28;19924;-70
2024/04/03 05:30:22;;;;;;;;;;;;;;;0.85;100.00;98720.09;5062329;28;20398;-68
2024/04/03 05:32:47;;;;;;;;;;;;;;;0.84;100.00;98721.88;5062479;28;19925;-67
2024/04/03 05:35:14;;;;;;;;;;;;;;;0.86;100.00;98735.66;5056931;28;19921;-68
2024/04/03 05:37:40;;;;;;;;;;;;;;;0.89;100.00;98722.28;5058745;28;20297;-69
2024/04/03 05:40:06;;;;;;;;;;;;;;;0.99;100.00;98732.69;5060628;28;19921;-69
2024/04/03 05:42:31;;;;;;;;;;;;;;;1.00;100.00;98728.25;5061279;28;19947;-68
2024/04/03 05:44:57;;;;;;;;;;;;;;;0.98;100.00;98710.06;5055785;28;20436;-69
2024/04/03 05:47:22;;;;;;;;;;;;;;;0.93;100.00;98715.75;5064892;28;20310;-66
2024/04/03 05:49:52;;;;;;;;;;;;;;;0.89;100.00;98710.97;5066199;28;19973;-68
2024/04/03 05:52:17;;;;;;;;;;;;;;;0.97;100.00;98707.59;5062525;28;19924;-68
2024/04/03 05:54:42;;;;;;;;;;;;;;;0.97;100.00;98702.34;5065042;28;20497;-70
2024/04/03 05:57:08;;;;;;;;;;;;;;;1.02;100.00;98707.94;5058456;28;19928;-68
2024/04/03 05:59:33;;;;;;;;;;;;;;;1.08;100.00;98710.78;5056804;28;19931;-69
2024/04/03 06:01:59;;;;;;;;;;;;;;;1.07;100.00;98708.31;5061480;28;19928;-67
2024/04/03 06:04:24;;;;;;;;;;;;;;;1.08;100.00;98702.09;5063197;28;19927;-67
2024/04/03 06:06:50;;;;;;;;;;;;;;;1.04;100.00;98706.00;5061874;28;19943;-68
2024/04/03 06:09:15;;;;;;;;;;;;;;;1.07;100.00;98690.78;5054433;28;20346;-68
2024/04/03 06:11:41;;;;;;;;;;;;;;;1.11;100.00;98704.41;5062539;28;19927;-70
2024/04/03 06:14:06;;;;;;;;;;;;;;;1.17;100.00;98719.56;5059473;28;19978;-70
2024/04/03 06:16:31;;;;;;;;;;;;;;;1.16;100.00;98696.94;5064664;28;20360;-69
2024/04/03 06:19:00;;;;;;;;;;;;;;;1.17;100.00;98703.81;5060728;28;19920;-69
2024/04/03 06:21:26;;;;;;;;;;;;;;;1.18;100.00;98694.97;5066108;28;19946;-69
2024/04/03 06:23:52;;;;;;;;;;;;;;;1.22;100.00;98693.69;5068820;28;20383;-68
2024/04/03 06:26:20;;;;;;;;;;;;;;;1.23;100.00;98687.47;5068144;28;19968;-69
2024/04/03 06:28:46;;;;;;;;;;;;;;;1.21;100.00;98692.88;5060886;28;19925;-67
2024/04/03 06:31:11;;;;;;;;;;;;;;;1.18;100.00;98684.50;5068277;28;19925;-68
2024/04/03 06:33:37;;;;;;;;;;;;;;;1.10;100.00;98687.84;5065361;28;19967;-68
2024/04/03 06:36:02;;;;;;;;;;;;;;;1.03;100.00;98681.59;5063609;28;19920;-66
2024/04/03 06:38:27;;;;;;;;;;;;;;;1.05;100.00;98684.88;5069101;28;19967;-67
2024/04/03 06:40:53;;;;;;;;;;;;;;;1.09;100.00;98680.16;5066145;28;20019;-68
2024/04/03 06:43:18;;;;;;;;;;;;;;;1.17;100.00;98667.13;5059949;28;20384;-68
2024/04/03 06:45:43;;;;;;;;;;;;;;;1.29;100.00;98665.88;5057808;28;19925;-66
2024/04/03 06:48:09;;;;;;;;;;;;;;;1.37;100.00;98672.97;5068573;28;20430;-67
2024/04/03 06:50:34;;;;;;;;;;;;;;;1.36;100.00;98684.44;5064771;28;19920;-67
2024/04/03 06:53:00;;;;;;;;;;;;;;;1.30;100.00;98670.13;5065139;28;19920;-70
2024/04/03 06:55:25;;;;;;;;;;;;;;;1.18;100.00;98679.25;5062097;28;19924;-71
2024/04/03 06:57:51;;;;;;;;;;;;;;;1.19;100.00;98679.09;5069282;28;20027;-70
2024/04/03 07:00:16;;;;;;;;;;;;;;;1.23;100.00;98671.75;5072299;28;19928;-71
2024/04/03 07:02:43;;;;;;;;;;;;;;;1.24;100.00;98673.38;5062647;28;20422;-69
2024/04/03 07:05:08;;;;;;;;;;;;;;;1.26;100.00;98675.84;5068566;28;19931;-68
2024/04/03 07:07:34;;;;;;;;;;;;;;;1.15;100.00;98672.50;5060902;28;19921;-66
2024/04/03 07:10:00;;;;;;;;;;;;;;;1.10;100.00;98666.06;5070695;28;19972;-68
2024/04/03 07:12:25;;;;;;;;;;;;;;;1.08;100.00;98668.84;5067088;28;19963;-67
2024/04/03 07:14:51;;;;;;;;;;;;;;;1.06;100.00;98675.22;5069384;28;20050;-66
2024/04/03 07:17:16;;;;;;;;;;;;;;;1.05;100.00;98668.31;5071188;28;19924;-67
2024/04/03 07:19:42;;;;;;;;;;;;;;;1.06;100.00;98669.97;5070012;28;19932;-67
2024/04/03 07:22:09;;;;;;;;;;;;;;;1.05;100.00;98652.59;5064315;28;20550;-67
2024/04/03 07:24:34;;;;;;;;;;;;;;;1.03;100.00;98670.28;5066260;28;20446;-67
2024/04/03 07:27:00;;;;;;;;;;;;;;;1.00;100.00;98665.34;5063877;28;19928;-67
2024/04/03 07:29:26;;;;;;;;;;;;;;;0.98;100.00;98667.31;5054236;28;19932;-70
2024/04/03 07:31:51;;;;;;;;;;;;;;;0.96;100.00;98671.88;5068568;28;20499;-69
2024/04/03 07:34:17;;;;;;;;;;;;;;;0.97;100.00;98666.47;5067891;28;20272;-67
2024/04/03 07:36:43;;;;;;;;;;;;;;;0.95;100.00;98663.19;5060296;28;19968;-67
2024/04/03 07:39:09;;;;;;;;;;;;;;;0.86;100.00;98664.91;5063858;28;19986;-68
2024/04/03 07:41:34;;;;;;;;;;;;;;;0.82;100.00;98663.56;5062739;28;20519;-68
2024/04/03 07:44:00;;;;;;;;;;;;;;;0.84;100.00;98655.56;5065483;28;19924;-72
2024/04/03 07:46:26;;;;;;;;;;;;;;;0.81;100.00;98663.72;5061328;28;19970;-67
2024/04/03 07:48:51;;;;;;;;;;;;;;;0.77;100.00;98689.41;5065839;28;19932;-66
2024/04/03 07:51:18;;;;;;;;;;;;;;;0.68;100.00;98671.97;5063689;28;19925;-68
2024/04/03 07:53:43;;;;;;;;;;;;;;;0.66;100.00;98681.78;5068793;28;19925;-71
2024/04/03 07:56:08;;;;;;;;;;;;;;;0.50;100.00;98692.09;5063312;28;19924;-68
2024/04/03 07:58:34;;;;;;;;;;;;;;;0.51;100.00;98680.66;5091908;28;19920;-67
2024/04/03 08:01:00;;;;;;;;;;;;;;;0.46;100.00;98681.09;5074168;28;19952;-69
2024/04/03 08:03:25;;;;;;;;;;;;;;;0.41;100.00;98669.44;5070887;28;19921;-68
2024/04/03 08:05:51;;;;;;;;;;;;;;;0.29;100.00;98659.19;5066939;28;20860;-69
2024/04/03 08:08:17;;;;;;;;;;;;;;;0.21;100.00;98640.75;5056656;28;19921;-67
2024/04/03 08:10:42;;;;;;;;;;;;;;;0.19;100.00;98627.00;5065706;28;19935;-73
2024/04/03 08:13:07;;;;;;;;;;;;;;;0.13;100.00;98635.47;5071238;28;20098;-69
2024/04/03 08:15:33;;;;;;;;;;;;;;;0.21;100.00;98642.56;5059895;28;19925;-72
2024/04/03 08:17:58;;;;;;;;;;;;;;;0.20;100.00;98641.75;5061129;28;20003;-70
2024/04/03 08:20:23;;;;;;;;;;;;;;;0.20;100.00;98641.75;5067214;28;19928;-71
2024/04/03 08:22:49;;;;;;;;;;;;;;;0.20;100.00;98626.03;5061119;28;19928;-70
2024/04/03 08:25:14;;;;;;;;;;;;;;;0.21;100.00;98642.56;5065563;28;19928;-70
2024/04/03 08:27:40;;;;;;;;;;;;;;;0.19;100.00;98650.56;5065938;28;19924;-67
2024/04/03 08:30:09;;;;;;;;;;;;;;;0.18;100.00;98655.94;5058187;28;19947;-69
2024/04/03 08:32:34;;;;;;;;;;;;;;;0.14;100.00;98652.81;5064296;28;19978;-68
2024/04/03 08:35:00;;;;;;;;;;;;;;;0.13;100.00;98653.78;5061705;28;20411;-68
2024/04/03 08:37:26;;;;;;;;;;;;;;;0.13;100.00;98659.00;5059110;28;19967;-66
2024/04/03 08:39:51;;;;;;;;;;;;;;;0.11;100.00;98645.25;5062354;28;19991;-67
2024/04/03 08:42:17;;;;;;;;;;;;;;;0.21;100.00;98664.31;5059767;28;19920;-70
2024/04/03 08:44:42;;;;;;;;;;;;;;;0.29;100.00;98667.03;5061730;28;20019;-70
2024/04/03 08:47:08;;;;;;;;;;;;;;;0.27;100.00;98671.56;5062162;28;20415;-67
2024/04/03 08:49:35;;;;;;;;;;;;;;;0.24;100.00;98671.06;5061528;28;20352;-68
2024/04/03 08:52:04;;;;;;;;;;;;;;;0.19;100.00;98665.44;5060155;28;19924;-68
2024/04/03 08:54:30;;;;;;;;;;;;;;;0.18;100.00;98675.09;5057854;28;20423;-69
2024/04/03 08:56:56;;;;;;;;;;;;;;;0.28;100.00;98668.00;5063000;28;19925;-66
2024/04/03 08:59:22;;;;;;;;;;;;;;;0.28;100.00;98662.75;5065335;28;19924;-67
2024/04/03 09:01:48;;;;;;;;;;;;;;;0.30;100.00;98652.97;5064451;28;19988;-70
2024/04/03 09:04:14;;;;;;;;;;;;;;;0.38;100.00;98654.03;5059699;28;19924;-69
2024/04/03 09:06:39;;;;;;;;;;;;;;;0.41;100.00;98670.25;5067633;28;19972;-68
2024/04/03 09:09:05;;;;;;;;;;;;;;;0.37;100.00;98668.09;5065530;28;19924;-67
2024/04/03 09:11:30;;;;;;;;;;;;;;;0.37;100.00;98670.72;5060802;28;19921;-68
2024/04/03 09:13:55;;;;;;;;;;;;;;;0.33;100.00;98666.75;5058548;28;19920;-68
2024/04/03 09:16:21;;;;;;;;;;;;;;;0.35;100.00;98659.56;5060577;28;20027;-67
2024/04/03 09:18:48;;;;;;;;;;;;;;;0.37;100.00;98686.41;5057855;28;20031;-68
2024/04/03 09:21:18;;;;;;;;;;;;;;;0.34;100.00;98691.97;5067025;28;19924;-68
2024/04/03 09:23:44;;;;;;;;;;;;;;;0.23;100.00;98678.09;5059870;28;20383;-69
2024/04/03 09:26:10;;;;;;;;;;;;;;;0.23;100.00;98690.34;5060016;28;20407;-70
2024/04/03 09:28:35;;;;;;;;;;;;;;;0.23;100.00;98696.41;5057650;28;19924;-69
2024/04/03 09:31:00;;;;;;;;;;;;;;;0.25;100.00;98686.63;5068078;28;19924;-68
2024/04/03 09:33:28;;;;;;;;;;;;;;;0.29;100.00;98698.47;5064202;28;19951;-70
2024/04/03 09:35:53;;;;;;;;;;;;;;;0.35;100.00;98697.03;5076587;28;19932;-67
2024/04/03 09:38:18;;;;;;;;;;;;;;;0.36;100.00;98721.44;5061627;28;19921;-70
2024/04/03 09:40:47;;;;;;;;;;;;;;;0.41;100.00;98713.94;5062533;28;20383;-71
2024/04/03 09:43:12;;;;;;;;;;;;;;;0.35;100.00;98718.00;5064647;28;19950;-68
2024/04/03 09:45:38;;;;;;;;;;;;;;;0.34;100.00;98726.00;5061188;28;19924;-68
2024/04/03 09:48:07;;;;;;;;;;;;;;;0.38;100.00;98727.34;5067010;28;19920;-69
2024/04/03 09:50:32;;;;;;;;;;;;;;;0.38;100.00;98727.34;5061981;28;20291;-67
2024/04/03 09:52:58;;;;;;;;;;;;;;;0.43;100.00;98725.09;5052103;28;19921;-69
2024/04/03 09:55:28;;;;;;;;;;;;;;;0.50;100.00;98720.91;5067331;28;19925;-70
2024/04/03 09:58:00;;;;;;;;;;;;;;;0.50;100.00;98728.78;5063105;28;20023;-69
2024/04/03 10:00:25;;;;;;;;;;;;;;;0.57;100.00;98732.44;5071732;28;19920;-67
2024/04/03 10:02:51;;;;;;;;;;;;;;;0.55;100.00;98739.63;5070699;28;19936;-69
2024/04/03 10:05:19;;;;;;;;;;;;;;;0.41;100.00;98734.91;5063958;28;20384;-69
2024/04/03 10:07:59;;;;;;;;;;;;;;;0.36;100.00;98756.28;5059349;28;19921;-69
2024/04/03 10:10:28;;;;;;;;;;;;;;;0.33;100.00;98748.75;5061908;28;19994;-67
2024/04/03 10:12:57;;;;;;;;;;;;;;;0.32;100.00;98760.19;5075935;28;19925;-67
2024/04/03 10:15:23;;;;;;;;;;;;;;;0.41;100.00;98756.69;5068872;28;19935;-68
2024/04/03 10:17:48;;;;;;;;;;;;;;;0.46;100.00;98782.41;5060529;28;19920;-68
2024/04/03 10:20:27;;;;;;;;;;;;;;;0.41;100.00;98775.00;5071154;28;20325;-69
2024/04/03 10:22:53;;;;;;;;;;;;;;;0.36;100.00;98772.00;5063268;28;19935;-69
2024/04/03 10:25:18;;;;;;;;;;;;;;;0.38;100.00;98785.78;5074607;28;19920;-68
2024/04/03 10:27:44;;;;;;;;;;;;;;;0.41;100.00;98788.09;5075358;28;19960;-66
2024/04/03 10:30:18;;;;;;;;;;;;;;;0.38;100.00;98796.25;5068285;28;20311;-69
2024/04/03 10:32:44;;;;;;;;;;;;;;;0.44;100.00;98785.19;5062109;28;20023;-66
2024/04/03 10:35:09;;;;;;;;;;;;;;;0.46;100.00;98804.19;5063242;28;19970;-69
2024/04/03 10:37:34;;;;;;;;;;;;;;;0.36;100.00;98794.75;5066238;28;20268;-69
2024/04/03 10:40:00;;;;;;;;;;;;;;;0.15;100.00;98800.22;5068819;28;19968;-69
2024/04/03 10:42:29;;;;;;;;;;;;;;;0.08;100.00;98805.19;5068693;28;19920;-67
2024/04/03 10:44:54;;;;;;;;;;;;;;;-0.01;100.00;98811.28;5054921;28;19973;-70
2024/04/03 10:47:19;;;;;;;;;;;;;;;-0.04;100.00;98809.78;5069018;28;20416;-71
2024/04/03 10:49:45;;;;;;;;;;;;;;;-0.12;100.00;98808.84;5072629;28;20461;-67
2024/04/03 10:52:10;;;;;;;;;;;;;;;-0.12;100.00;98801.00;5069070;28;19931;-69
2024/04/03 10:54:35;;;;;;;;;;;;;;;-0.19;100.00;98799.91;5065558;28;20028;-70
2024/04/03 10:57:02;;;;;;;;;;;;;;;-0.35;100.00;98793.47;5082628;28;20391;-69
2024/04/03 10:59:27;;;;;;;;;;;;;;;-0.42;100.00;98836.03;5071696;28;19928;-67
2024/04/03 11:01:53;;;;;;;;;;;;;;;-0.56;100.00;98824.22;5057302;28;19924;-70
2024/04/03 11:04:18;;;;;;;;;;;;;;;-0.64;100.00;98792.69;5065537;28;19970;-67
2024/04/03 11:06:45;;;;;;;;;;;;;;;-0.61;100.00;98808.09;5064819;28;20430;-68
2024/04/03 11:09:11;;;;;;;;;;;;;;;-0.58;100.00;98807.81;5062542;28;19925;-67
2024/04/03 11:11:41;;;;;;;;;;;;;;;-0.62;100.00;98798.63;5067750;28;19965;-67
2024/04/03 11:14:06;;;;;;;;;;;;;;;-0.69;100.00;98810.59;5075644;28;20494;-68
2024/04/03 11:16:32;;;;;;;;;;;;;;;-0.70;100.00;98808.94;5059334;28;20015;-70
2024/04/03 11:18:57;;;;;;;;;;;;;;;-0.74;100.00;98820.66;5056669;28;20382;-70
2024/04/03 11:21:23;;;;;;;;;;;;;;;-0.80;100.00;98818.59;5056543;28;19924;-69
2024/04/03 11:23:48;;;;;;;;;;;;;;;-0.81;100.00;98837.84;5070080;28;20391;-69
2024/04/03 11:26:13;;;;;;;;;;;;;;;-0.86;100.00;98830.44;5069488;28;20472;-68
2024/04/03 11:28:42;;;;;;;;;;;;;;;-0.82;100.00;98846.66;5065513;28;20331;-68
2024/04/03 11:31:11;;;;;;;;;;;;;;;-0.81;100.00;98830.00;5044362;28;19924;-69
2024/04/03 11:33:36;;;;;;;;;;;;;;;-0.83;100.00;98845.00;5059456;28;19931;-66
2024/04/03 11:36:01;;;;;;;;;;;;;;;-0.96;100.00;98846.09;5070618;28;19920;-70
2024/04/03 11:38:28;;;;;;;;;;;;;;;-0.96;100.00;98846.09;5057488;28;19925;-70
2024/04/03 11:40:53;;;;;;;;;;;;;;;-0.90;100.00;98849.94;5053963;28;20301;-70
2024/04/03 11:43:19;;;;;;;;;;;;;;;-0.88;100.00;98850.63;5066647;28;19931;-69
2024/04/03 11:45:44;;;;;;;;;;;;;;;-0.89;100.00;98856.81;5062566;28;19971;-70
2024/04/03 11:48:10;;;;;;;;;;;;;;;-0.84;100.00;98861.66;5068379;28;20027;-68
2024/04/03 11:50:35;;;;;;;;;;;;;;;-0.79;100.00;98867.28;5064988;28;19920;-68
2024/04/03 11:53:00;;;;;;;;;;;;;;;-0.79;100.00;98865.50;5063122;28;19924;-66
2024/04/03 11:55:26;;;;;;;;;;;;;;;-0.76;100.00;98867.00;5066824;28;19925;-67
2024/04/03 11:57:51;;;;;;;;;;;;;;;-0.68;100.00;98869.75;5070719;28;19928;-69
2024/04/03 12:00:16;;;;;;;;;;;;;;;-0.64;100.00;98871.13;5058073;28;19927;-69
2024/04/03 12:02:42;;;;;;;;;;;;;;;-0.57;100.00;98871.44;5069813;28;20342;-70
2024/04/03 12:05:08;;;;;;;;;;;;;;;-0.50;100.00;98867.28;5055544;28;19956;-69
2024/04/03 12:07:35;;;;;;;;;;;;;;;-0.45;100.00;98881.59;5063682;28;19924;-69
2024/04/03 12:10:00;;;;;;;;;;;;;;;-0.43;100.00;98884.91;5053964;28;20336;-68
2024/04/03 12:12:28;;;;;;;;;;;;;;;-0.52;100.00;98880.50;5071609;28;20024;-71
2024/04/03 12:14:53;;;;;;;;;;;;;;;-0.57;100.00;98882.72;5060490;28;20371;-70
2024/04/03 12:17:23;;;;;;;;;;;;;;;-0.64;100.00;98894.66;5069439;28;19970;-67
2024/04/03 12:22:26;;;;;;;;;;;;;;;-0.69;100.00;98904.72;5057908;28;19931;-69
2024/04/03 12:24:52;;;;;;;;;;;;;;;-0.66;100.00;98897.41;5057530;28;19933;-70
2024/04/03 12:27:18;;;;;;;;;;;;;;;-0.63;100.00;98904.97;5058359;28;20406;-69
2024/04/03 12:29:43;;;;;;;;;;;;;;;-0.61;100.00;98904.84;5059078;28;19929;-68
2024/04/03 12:32:09;;;;;;;;;;;;;;;-0.67;100.00;98921.09;5060770;28;20369;-68
2024/04/03 12:34:34;;;;;;;;;;;;;;;-0.73;100.00;98921.63;5066442;28;19932;-67
2024/04/03 12:36:59;;;;;;;;;;;;;;;-0.69;100.00;98936.91;5068839;28;19928;-69
2024/04/03 12:39:25;;;;;;;;;;;;;;;-0.70;100.00;98931.81;5070119;28;19926;-70
2024/04/03 12:41:50;;;;;;;;;;;;;;;-0.74;100.00;98933.88;5062617;28;20058;-68
2024/04/03 12:44:15;;;;;;;;;;;;;;;-0.75;100.00;98934.00;5065075;28;19925;-69
2024/04/03 12:46:41;;;;;;;;;;;;;;;-0.83;100.00;98963.44;5062250;28;20307;-69